Time;durP1;ratioP1;P1;durP2;ratioP2;P2;SDS_P1;SDS_P2;PMS_P1;PMS_P2;Temp;Humidity;BMP_temperature;BMP_pressure;BME280_temperature;BME280_humidity;BME280_pressure;Samples;Min_cycle;Max_cycle;Signal;HPM_P1;HPM_P2
2024/01/10 00:01:19;;;;;;;37.22;10.73;;;-3.10;99.90;;;;;;5056580;28;20027;-68
2024/01/10 00:03:44;;;;;;;26.60;10.20;;;-3.10;99.90;;;;;;5056857;28;20029;-68
2024/01/10 00:06:15;;;;;;;36.88;11.68;;;-3.20;99.90;;;;;;5056191;28;20021;-68
2024/01/10 00:08:49;;;;;;;25.20;10.68;;;-3.30;99.90;;;;;;5057014;28;20021;-68
2024/01/10 00:11:34;;;;;;;29.17;9.50;;;-3.10;99.90;;;;;;5055889;28;20032;-68
2024/01/10 00:14:00;;;;;;;31.02;12.20;;;-3.30;99.90;;;;;;5055605;28;20051;-68
2024/01/10 00:16:41;;;;;;;27.40;10.13;;;-3.40;99.90;;;;;;5057692;28;20025;-68
2024/01/10 00:19:09;;;;;;;26.58;10.73;;;-3.30;99.90;;;;;;5060254;28;20025;-68
2024/01/10 00:21:36;;;;;;;33.83;9.68;;;-3.40;99.90;;;;;;5059581;28;20025;-68
2024/01/10 00:24:10;;;;;;;34.33;12.25;;;-3.40;99.90;;;;;;5060420;28;20020;-68
2024/01/10 00:26:39;;;;;;;39.53;12.13;;;-3.30;99.90;;;;;;5060471;28;20035;-68
2024/01/10 00:29:08;;;;;;;31.90;10.25;;;-3.60;99.90;;;;;;5060149;28;20088;-68
2024/01/10 00:31:34;;;;;;;30.27;9.80;;;-3.60;99.90;;;;;;5059598;28;20052;-67
2024/01/10 00:33:59;;;;;;;33.78;11.15;;;-3.50;99.90;;;;;;5060074;28;20065;-68
2024/01/10 00:36:26;;;;;;;32.50;11.00;;;-3.50;99.90;;;;;;5060154;28;20079;-68
2024/01/10 00:38:51;;;;;;;30.88;10.80;;;-3.30;99.90;;;;;;5059898;28;20041;-68
2024/01/10 00:41:17;;;;;;;35.38;10.68;;;-3.30;99.90;;;;;;5059683;28;20032;-69
2024/01/10 00:43:42;;;;;;;33.00;11.60;;;-3.40;99.90;;;;;;5059026;28;20036;-69
2024/01/10 00:46:08;;;;;;;30.88;10.75;;;-3.50;99.90;;;;;;5059288;28;20025;-68
2024/01/10 00:48:34;;;;;;;35.58;11.18;;;-3.50;99.90;;;;;;5059940;28;20028;-68
2024/01/10 00:50:59;;;;;;;40.67;10.98;;;-3.40;99.90;;;;;;5060058;28;20043;-68
2024/01/10 00:53:25;;;;;;;29.00;10.48;;;-3.50;99.90;;;;;;5058762;28;20025;-68
2024/01/10 00:55:50;;;;;;;33.97;9.77;;;-3.50;99.90;;;;;;5059219;28;20017;-67
2024/01/10 00:58:16;;;;;;;26.77;9.35;;;-3.40;99.90;;;;;;5059524;28;20021;-68
2024/01/10 01:00:42;;;;;;;30.65;9.90;;;-3.40;99.90;;;;;;5059802;28;20032;-68
2024/01/10 01:03:07;;;;;;;29.15;10.70;;;-3.30;99.90;;;;;;5059774;28;20024;-68
2024/01/10 01:05:33;;;;;;;30.45;10.38;;;-3.20;99.90;;;;;;5059417;28;20040;-67
2024/01/10 01:07:58;;;;;;;29.05;9.75;;;-3.40;99.90;;;;;;5059416;28;20029;-68
2024/01/10 01:10:24;;;;;;;32.63;10.50;;;-3.40;99.90;;;;;;5058414;28;20028;-68
2024/01/10 01:12:49;;;;;;;29.88;10.95;;;-3.60;99.90;;;;;;5059646;28;20021;-67
2024/01/10 01:15:15;;;;;;;30.70;11.77;;;-3.40;99.90;;;;;;5058973;28;20021;-69
2024/01/10 01:17:40;;;;;;;33.22;11.07;;;-3.40;99.90;;;;;;5058362;28;20025;-68
2024/01/10 01:20:06;;;;;;;29.88;10.52;;;-3.60;99.90;;;;;;5058205;28;20025;-68
2024/01/10 01:22:32;;;;;;;30.33;10.75;;;-3.60;99.90;;;;;;5058229;28;20112;-68
2024/01/10 01:24:58;;;;;;;34.53;10.82;;;-3.60;99.90;;;;;;5059223;28;20052;-68
2024/01/10 01:27:23;;;;;;;30.92;10.52;;;-3.50;99.90;;;;;;5058704;28;20040;-68
2024/01/10 01:29:49;;;;;;;35.83;11.48;;;-3.30;99.90;;;;;;5058939;28;20032;-68
2024/01/10 01:32:14;;;;;;;37.92;12.82;;;-3.20;99.90;;;;;;5058885;28;20091;-68
2024/01/10 01:34:40;;;;;;;36.08;11.77;;;-3.40;99.90;;;;;;5057810;28;20111;-68
2024/01/10 01:37:05;;;;;;;32.53;11.70;;;-3.50;99.90;;;;;;5058889;28;20025;-68
2024/01/10 01:39:31;;;;;;;41.10;11.15;;;-3.50;99.90;;;;;;5058217;28;20021;-68
2024/01/10 01:41:56;;;;;;;37.05;12.27;;;-3.50;99.90;;;;;;5059287;28;20084;-67
2024/01/10 01:44:22;;;;;;;37.67;10.98;;;-3.40;99.90;;;;;;5058727;28;20025;-68
2024/01/10 01:46:48;;;;;;;32.33;10.23;;;-3.50;99.90;;;;;;5058686;28;20036;-68
2024/01/10 01:49:14;;;;;;;38.38;11.35;;;-3.60;99.90;;;;;;5057770;28;20025;-68
2024/01/10 01:51:40;;;;;;;29.60;10.73;;;-3.60;99.90;;;;;;5057707;28;20108;-68
2024/01/10 01:54:11;;;;;;;31.38;11.15;;;-3.60;99.90;;;;;;5058593;28;20049;-69
2024/01/10 01:56:37;;;;;;;36.53;11.27;;;-3.50;99.90;;;;;;5058637;28;20026;-68
2024/01/10 01:59:06;;;;;;;29.83;10.35;;;-3.40;99.90;;;;;;5058313;28;20060;-68
2024/01/10 02:01:32;;;;;;;33.58;10.77;;;-3.50;99.90;;;;;;5058411;28;20025;-68
2024/01/10 02:03:58;;;;;;;35.13;11.63;;;-3.40;99.90;;;;;;5058372;28;20040;-68
2024/01/10 02:06:24;;;;;;;31.55;10.63;;;-3.40;99.90;;;;;;5058250;28;20025;-68
2024/01/10 02:08:49;;;;;;;34.78;11.82;;;-3.40;99.90;;;;;;5057734;28;20021;-68
2024/01/10 02:11:15;;;;;;;36.55;10.68;;;-3.20;99.90;;;;;;5058219;28;20025;-68
2024/01/10 02:13:41;;;;;;;37.78;10.95;;;-3.20;99.90;;;;;;5057151;28;20083;-68
2024/01/10 02:16:07;;;;;;;35.03;11.95;;;-3.20;99.90;;;;;;5058494;28;20025;-68
2024/01/10 02:18:34;;;;;;;38.90;11.80;;;-3.20;99.90;;;;;;5057170;28;20027;-68
2024/01/10 02:21:00;;;;;;;37.47;11.45;;;-3.30;99.90;;;;;;5057747;28;20056;-68
2024/01/10 02:23:26;;;;;;;40.08;11.45;;;-3.30;99.90;;;;;;5057133;28;20017;-68
2024/01/10 02:25:51;;;;;;;31.13;11.55;;;-3.40;99.90;;;;;;5057910;28;20021;-68
2024/01/10 02:28:17;;;;;;;38.30;11.20;;;-3.40;99.90;;;;;;5057514;28;20066;-68
2024/01/10 02:30:42;;;;;;;33.03;11.20;;;-3.50;99.90;;;;;;5058471;28;20045;-68
2024/01/10 02:33:08;;;;;;;34.83;11.43;;;-3.40;99.90;;;;;;5057720;28;20024;-69
2024/01/10 02:35:33;;;;;;;34.95;11.18;;;-3.50;99.90;;;;;;5057712;28;20028;-68
2024/01/10 02:38:00;;;;;;;32.05;11.48;;;-3.60;99.90;;;;;;5056526;28;20013;-67
2024/01/10 02:40:25;;;;;;;30.20;11.90;;;-3.40;99.90;;;;;;5056332;28;20017;-67
2024/01/10 02:42:51;;;;;;;29.23;11.60;;;-3.40;99.90;;;;;;5057107;28;20029;-68
2024/01/10 02:45:17;;;;;;;31.60;11.27;;;-3.30;99.90;;;;;;5057482;28;20098;-68
2024/01/10 02:47:44;;;;;;;43.75;12.70;;;-3.30;99.90;;;;;;5056722;28;20055;-68
2024/01/10 02:50:10;;;;;;;30.20;10.65;;;-3.20;99.90;;;;;;5056791;28;20020;-68
2024/01/10 02:52:35;;;;;;;33.50;11.48;;;-3.30;99.90;;;;;;5056910;28;20063;-68
2024/01/10 02:55:01;;;;;;;32.88;9.90;;;-3.40;99.90;;;;;;5056475;28;20025;-68
2024/01/10 02:57:26;;;;;;;35.97;10.43;;;-3.40;99.90;;;;;;5056322;28;20021;-68
2024/01/10 02:59:52;;;;;;;31.80;11.70;;;-3.30;99.90;;;;;;5056590;28;20025;-68
2024/01/10 03:02:17;;;;;;;40.85;12.52;;;-3.40;99.90;;;;;;5057294;28;20021;-68
2024/01/10 03:04:44;;;;;;;39.05;10.75;;;-3.30;99.90;;;;;;5056562;28;20021;-68
2024/01/10 03:07:10;;;;;;;37.38;13.48;;;-3.30;99.90;;;;;;5056282;28;20032;-68
2024/01/10 03:09:35;;;;;;;37.45;11.85;;;-3.20;99.90;;;;;;5056156;28;20025;-68
2024/01/10 03:12:01;;;;;;;36.92;10.75;;;-3.20;99.90;;;;;;5056493;28;20028;-68
2024/01/10 03:14:26;;;;;;;33.80;11.10;;;-3.40;99.90;;;;;;5056106;28;20100;-68
2024/01/10 03:16:53;;;;;;;32.40;10.23;;;-3.50;99.90;;;;;;5056245;28;20067;-68
2024/01/10 03:19:18;;;;;;;35.22;10.85;;;-3.60;99.90;;;;;;5056765;28;20025;-69
2024/01/10 03:21:44;;;;;;;36.13;11.43;;;-3.50;99.90;;;;;;5056509;28;20024;-69
2024/01/10 03:24:09;;;;;;;36.22;11.20;;;-3.50;99.90;;;;;;5056753;28;20115;-69
2024/01/10 03:26:35;;;;;;;31.98;10.00;;;-3.50;99.90;;;;;;5056072;28;20025;-68
2024/01/10 03:29:01;;;;;;;29.08;9.75;;;-3.50;99.90;;;;;;5055848;28;20036;-68
2024/01/10 03:31:30;;;;;;;27.63;11.70;;;-3.50;99.90;;;;;;5056314;28;20025;-68
2024/01/10 03:33:56;;;;;;;39.17;12.35;;;-3.60;99.90;;;;;;5056774;28;20083;-68
2024/01/10 03:36:22;;;;;;;31.30;11.63;;;-3.50;99.90;;;;;;5056113;28;20121;-68
2024/01/10 03:38:47;;;;;;;30.77;11.23;;;-3.50;99.90;;;;;;5055869;28;20052;-68
2024/01/10 03:41:17;;;;;;;31.23;11.10;;;-3.40;99.90;;;;;;5055750;28;20033;-68
2024/01/10 03:43:43;;;;;;;34.92;11.32;;;-3.40;99.90;;;;;;5056952;28;20064;-68
2024/01/10 03:46:10;;;;;;;33.72;11.50;;;-3.40;99.90;;;;;;5056177;28;20021;-68
2024/01/10 03:48:35;;;;;;;31.67;10.32;;;-3.30;99.90;;;;;;5055937;28;20071;-69
2024/01/10 03:51:01;;;;;;;36.50;11.35;;;-3.40;99.90;;;;;;5058622;28;20067;-69
2024/01/10 03:53:27;;;;;;;36.33;12.25;;;-3.30;99.90;;;;;;5059847;28;20048;-69
2024/01/10 03:55:52;;;;;;;28.58;10.32;;;-3.30;99.90;;;;;;5059844;28;20028;-68
2024/01/10 03:58:18;;;;;;;41.08;13.82;;;-3.30;99.90;;;;;;5060974;28;20025;-68
2024/01/10 04:00:43;;;;;;;34.10;12.25;;;-3.20;99.90;;;;;;5060074;28;20028;-68
2024/01/10 04:03:09;;;;;;;36.28;11.50;;;-3.30;99.90;;;;;;5060529;28;20036;-68
2024/01/10 04:05:35;;;;;;;36.95;11.15;;;-3.30;99.90;;;;;;5059962;28;20029;-68
2024/01/10 04:08:00;;;;;;;32.33;11.45;;;-3.40;99.90;;;;;;5060395;28;20025;-68
2024/01/10 04:10:26;;;;;;;39.10;12.52;;;-3.50;99.90;;;;;;5060663;28;20025;-68
2024/01/10 04:12:51;;;;;;;38.47;12.52;;;-3.70;99.90;;;;;;5059776;28;20025;-68
2024/01/10 04:15:20;;;;;;;35.08;10.48;;;-3.70;99.90;;;;;;5059788;28;20028;-68
2024/01/10 04:17:45;;;;;;;31.48;12.18;;;-3.60;99.90;;;;;;5059751;28;20025;-68
2024/01/10 04:20:11;;;;;;;28.42;11.18;;;-3.60;99.90;;;;;;5059819;28;20112;-68
2024/01/10 04:22:36;;;;;;;41.03;12.15;;;-3.60;99.90;;;;;;5059652;28;20112;-68
2024/01/10 04:25:06;;;;;;;42.13;11.70;;;-3.60;99.90;;;;;;5059376;28;20029;-68
2024/01/10 04:27:32;;;;;;;42.15;12.35;;;-3.70;99.90;;;;;;5059545;28;20025;-68
2024/01/10 04:29:58;;;;;;;36.13;12.02;;;-3.60;99.90;;;;;;5059445;28;20025;-68
2024/01/10 04:32:23;;;;;;;42.05;13.45;;;-3.60;99.90;;;;;;5059647;28;20035;-68
2024/01/10 04:34:49;;;;;;;38.72;13.10;;;-3.70;99.90;;;;;;5059105;28;20064;-68
2024/01/10 04:37:15;;;;;;;37.42;12.75;;;-3.70;99.90;;;;;;5060076;28;20025;-68
2024/01/10 04:39:42;;;;;;;29.35;9.85;;;-3.80;99.90;;;;;;5059057;28;20032;-68
2024/01/10 04:42:08;;;;;;;34.17;10.90;;;-3.80;99.90;;;;;;5058884;28;20036;-68
2024/01/10 04:44:34;;;;;;;39.55;12.20;;;-3.70;99.90;;;;;;5059442;28;20152;-68
2024/01/10 04:47:00;;;;;;;39.05;12.30;;;-3.80;99.90;;;;;;5058895;28;20025;-68
2024/01/10 04:49:25;;;;;;;36.70;10.77;;;-3.80;99.90;;;;;;5059104;28;20021;-68
2024/01/10 04:51:51;;;;;;;31.00;11.88;;;-3.80;99.90;;;;;;5059680;28;20056;-68
2024/01/10 04:54:17;;;;;;;33.03;12.05;;;-3.80;99.90;;;;;;5058699;28;20060;-68
2024/01/10 04:56:42;;;;;;;43.05;13.75;;;-3.80;99.90;;;;;;5059096;28;20021;-68
2024/01/10 04:59:08;;;;;;;37.47;13.15;;;-3.90;99.90;;;;;;5058943;28;20025;-68
2024/01/10 05:01:33;;;;;;;36.70;13.88;;;-3.80;99.90;;;;;;5058721;28;20017;-68
2024/01/10 05:03:59;;;;;;;29.95;10.85;;;-3.80;99.90;;;;;;5059418;28;20036;-68
2024/01/10 05:06:25;;;;;;;35.42;12.02;;;-3.60;99.90;;;;;;5059307;28;20021;-68
2024/01/10 05:08:50;;;;;;;41.97;13.38;;;-3.60;99.90;;;;;;5059220;28;20024;-68
2024/01/10 05:11:16;;;;;;;27.70;10.48;;;-3.60;99.90;;;;;;5058806;28;20127;-68
2024/01/10 05:13:45;;;;;;;39.47;12.63;;;-3.70;99.90;;;;;;5058558;28;20025;-68
2024/01/10 05:16:10;;;;;;;33.65;11.25;;;-3.70;99.90;;;;;;5058786;28;20116;-68
2024/01/10 05:18:36;;;;;;;37.33;11.63;;;-3.80;99.90;;;;;;5058754;28;20106;-68
2024/01/10 05:21:03;;;;;;;38.53;12.85;;;-3.80;99.90;;;;;;5058933;28;20029;-68
2024/01/10 05:23:29;;;;;;;36.60;12.35;;;-3.90;99.90;;;;;;5059089;28;20029;-68
2024/01/10 05:25:55;;;;;;;41.50;12.27;;;-3.90;99.90;;;;;;5058109;28;20025;-68
2024/01/10 05:28:21;;;;;;;44.22;13.95;;;-3.80;99.90;;;;;;5058475;28;20108;-68
2024/01/10 05:30:46;;;;;;;35.60;11.50;;;-3.80;99.90;;;;;;5059324;28;20044;-68
2024/01/10 05:33:12;;;;;;;36.17;12.20;;;-3.90;99.90;;;;;;5058309;28;20029;-68
2024/01/10 05:35:41;;;;;;;35.85;12.98;;;-4.00;99.90;;;;;;5057874;28;20119;-68
2024/01/10 05:38:06;;;;;;;41.90;12.00;;;-3.90;99.90;;;;;;5058183;28;20092;-68
2024/01/10 05:40:32;;;;;;;37.58;11.63;;;-3.90;99.90;;;;;;5058874;28;20113;-68
2024/01/10 05:43:01;;;;;;;36.92;11.82;;;-3.80;99.90;;;;;;5057963;28;20082;-68
2024/01/10 05:45:26;;;;;;;36.50;12.13;;;-3.70;99.90;;;;;;5058093;28;20029;-68
2024/01/10 05:47:52;;;;;;;39.42;11.40;;;-3.60;99.90;;;;;;5057648;28;20031;-68
2024/01/10 05:50:18;;;;;;;35.35;11.73;;;-3.80;99.90;;;;;;5058110;28;20021;-68
2024/01/10 05:52:43;;;;;;;34.40;11.30;;;-3.90;99.90;;;;;;5058115;28;20017;-68
2024/01/10 05:55:09;;;;;;;34.17;12.57;;;-3.90;99.90;;;;;;5057672;28;20025;-68
2024/01/10 05:57:36;;;;;;;33.75;12.35;;;-3.90;99.90;;;;;;5057645;28;20108;-68
2024/01/10 06:00:04;;;;;;;41.63;12.93;;;-3.90;99.90;;;;;;5058263;28;20021;-68
2024/01/10 06:02:29;;;;;;;33.50;11.68;;;-3.90;99.90;;;;;;5057717;28;20127;-68
2024/01/10 06:04:55;;;;;;;38.28;12.88;;;-3.90;99.90;;;;;;5058186;28;20037;-67
2024/01/10 06:07:20;;;;;;;45.53;12.95;;;-3.90;99.90;;;;;;5057470;28;20025;-67
2024/01/10 06:09:47;;;;;;;33.92;12.73;;;-3.90;99.90;;;;;;5057244;28;20033;-67
2024/01/10 06:12:13;;;;;;;37.50;13.30;;;-3.80;99.90;;;;;;5058315;28;20084;-67
2024/01/10 06:14:38;;;;;;;32.10;11.35;;;-3.90;99.90;;;;;;5057604;28;20064;-67
2024/01/10 06:17:04;;;;;;;38.88;12.63;;;-3.80;99.90;;;;;;5057450;28;20079;-67
2024/01/10 06:19:33;;;;;;;34.33;11.32;;;-3.80;99.90;;;;;;5057117;28;20033;-67
2024/01/10 06:21:59;;;;;;;42.10;13.35;;;-3.80;99.90;;;;;;5057206;28;20021;-67
2024/01/10 06:24:25;;;;;;;34.38;11.68;;;-3.70;99.90;;;;;;5058044;28;20056;-67
2024/01/10 06:26:51;;;;;;;38.90;12.10;;;-4.10;99.90;;;;;;5057359;28;20021;-67
2024/01/10 06:29:18;;;;;;;45.33;12.57;;;-4.00;99.90;;;;;;5057015;28;20048;-69
2024/01/10 06:31:43;;;;;;;39.45;12.43;;;-3.90;99.90;;;;;;5057760;28;20036;-68
2024/01/10 06:34:09;;;;;;;35.67;13.02;;;-3.90;99.90;;;;;;5057003;28;20029;-67
2024/01/10 06:36:35;;;;;;;40.45;12.98;;;-3.90;99.90;;;;;;5057800;28;20120;-68
2024/01/10 06:39:01;;;;;;;38.92;12.65;;;-3.90;99.90;;;;;;5057767;28;20078;-67
2024/01/10 06:41:27;;;;;;;36.17;11.35;;;-3.80;99.90;;;;;;5057592;28;20104;-67
2024/01/10 06:43:53;;;;;;;34.67;12.27;;;-3.90;99.90;;;;;;5057905;28;20043;-67
2024/01/10 06:46:19;;;;;;;41.85;14.30;;;-4.10;99.90;;;;;;5056855;28;20036;-67
2024/01/10 06:48:44;;;;;;;41.85;13.23;;;-4.00;99.90;;;;;;5057495;28;20029;-67
2024/01/10 06:51:12;;;;;;;46.13;12.82;;;-4.10;99.90;;;;;;5056498;28;20142;-67
2024/01/10 06:53:38;;;;;;;47.53;14.63;;;-4.00;99.90;;;;;;5056482;28;20032;-67
2024/01/10 06:56:04;;;;;;;38.60;12.70;;;-4.20;99.90;;;;;;5057364;28;20017;-68
2024/01/10 06:58:29;;;;;;;44.88;14.32;;;-4.20;99.90;;;;;;5056448;28;20024;-68
2024/01/10 07:00:55;;;;;;;41.67;13.40;;;-4.00;99.90;;;;;;5057306;28;20025;-67
2024/01/10 07:03:20;;;;;;;42.65;11.98;;;-4.10;99.90;;;;;;5057205;28;20028;-67
2024/01/10 07:05:46;;;;;;;35.38;12.90;;;-4.10;99.90;;;;;;5057849;28;20025;-67
2024/01/10 07:08:12;;;;;;;40.70;12.38;;;-4.10;99.90;;;;;;5057200;28;20021;-68
2024/01/10 07:10:38;;;;;;;41.28;13.93;;;-4.00;99.90;;;;;;5057382;28;20025;-67
2024/01/10 07:13:04;;;;;;;37.08;13.98;;;-4.00;99.90;;;;;;5057299;28;20021;-67
2024/01/10 07:15:29;;;;;;;39.63;13.45;;;-4.00;99.90;;;;;;5056732;28;20052;-67
2024/01/10 07:17:55;;;;;;;35.15;12.23;;;-4.20;99.90;;;;;;5056939;28;20039;-67
2024/01/10 07:20:23;;;;;;;39.35;12.32;;;-4.20;99.90;;;;;;5056418;28;20025;-68
2024/01/10 07:22:49;;;;;;;37.47;14.57;;;-4.10;99.90;;;;;;5057109;28;20024;-67
2024/01/10 07:25:15;;;;;;;39.00;14.00;;;-4.20;99.90;;;;;;5056062;28;20100;-67
2024/01/10 07:27:41;;;;;;;41.63;13.05;;;-4.20;99.90;;;;;;5056242;28;20053;-67
2024/01/10 07:30:16;;;;;;;40.17;13.80;;;-4.10;99.90;;;;;;5056897;28;20107;-67
2024/01/10 07:32:43;;;;;;;42.85;12.48;;;-4.00;99.90;;;;;;5057131;28;20036;-67
2024/01/10 07:35:10;;;;;;;41.47;13.40;;;-3.90;99.90;;;;;;5056765;28;20048;-68
2024/01/10 07:37:40;;;;;;;38.03;13.10;;;-3.90;99.90;;;;;;5056882;28;20025;-67
2024/01/10 07:40:16;;;;;;;39.67;13.80;;;-4.00;99.90;;;;;;5055769;28;20025;-67
2024/01/10 07:42:43;;;;;;;41.45;12.60;;;-3.80;99.90;;;;;;5056797;28;20080;-67
2024/01/10 07:45:09;;;;;;;42.10;13.40;;;-3.80;99.90;;;;;;5056208;28;20128;-68
2024/01/10 07:47:37;;;;;;;40.50;13.18;;;-3.80;99.90;;;;;;5055798;28;20025;-67
2024/01/10 07:50:08;;;;;;;34.55;12.23;;;-3.80;99.90;;;;;;5055665;28;20029;-68
2024/01/10 07:52:34;;;;;;;39.60;13.25;;;-3.70;99.90;;;;;;5056053;28;20060;-67
2024/01/10 07:55:00;;;;;;;42.13;15.13;;;-3.80;99.90;;;;;;5055734;28;20056;-67
2024/01/10 07:57:26;;;;;;;47.55;14.68;;;-3.70;99.90;;;;;;5056685;28;20067;-67
2024/01/10 07:59:52;;;;;;;50.45;15.77;;;-3.70;99.90;;;;;;5056647;28;20021;-67
2024/01/10 08:02:18;;;;;;;50.15;14.30;;;-3.80;99.90;;;;;;5056597;28;20024;-67
2024/01/10 08:04:43;;;;;;;42.40;14.32;;;-4.00;99.90;;;;;;5055799;28;20028;-67
2024/01/10 08:07:09;;;;;;;40.45;13.82;;;-3.80;99.90;;;;;;5055993;28;20029;-68
2024/01/10 08:09:36;;;;;;;42.72;14.60;;;-3.80;99.90;;;;;;5056475;28;20037;-68
2024/01/10 08:12:02;;;;;;;44.35;14.20;;;-3.70;99.90;;;;;;5056457;28;20108;-68
2024/01/10 08:14:28;;;;;;;42.85;14.55;;;-3.80;99.90;;;;;;5055311;28;20033;-68
2024/01/10 08:16:54;;;;;;;41.80;13.45;;;-3.80;99.90;;;;;;5056516;28;20024;-68
2024/01/10 08:19:20;;;;;;;47.47;15.90;;;-3.70;99.90;;;;;;5056275;28;20048;-68
2024/01/10 08:21:45;;;;;;;48.65;15.27;;;-3.60;99.90;;;;;;5056346;28;20029;-68
2024/01/10 08:24:11;;;;;;;42.67;14.75;;;-3.60;99.90;;;;;;5056222;28;20088;-68
2024/01/10 08:26:37;;;;;;;45.72;14.77;;;-3.60;99.90;;;;;;5056247;28;20036;-68
2024/01/10 08:29:03;;;;;;;42.55;13.95;;;-3.50;99.90;;;;;;5056238;28;20024;-68
2024/01/10 08:31:29;;;;;;;49.03;14.77;;;-3.50;99.90;;;;;;5056177;28;20029;-68
2024/01/10 08:33:56;;;;;;;45.20;15.73;;;-3.40;99.90;;;;;;5056063;28;20037;-68
2024/01/10 08:36:24;;;;;;;41.28;14.50;;;-3.50;99.90;;;;;;5056164;28;20025;-68
2024/01/10 08:38:50;;;;;;;39.05;13.93;;;-3.60;99.90;;;;;;5059900;28;20024;-68
2024/01/10 08:41:15;;;;;;;38.92;12.77;;;-3.40;99.90;;;;;;5059745;28;20033;-68
2024/01/10 08:43:41;;;;;;;41.47;14.98;;;-3.50;99.90;;;;;;5059833;28;20059;-67
2024/01/10 08:46:09;;;;;;;39.80;13.80;;;-3.60;99.90;;;;;;5059748;28;20048;-68
2024/01/10 08:48:36;;;;;;;37.28;13.40;;;-3.50;99.90;;;;;;5059862;28;20044;-69
2024/01/10 08:51:02;;;;;;;41.55;14.20;;;-3.70;99.90;;;;;;5059843;28;20013;-68
2024/01/10 08:53:28;;;;;;;41.60;12.93;;;-3.60;99.90;;;;;;5059904;28;20086;-68
2024/01/10 08:55:53;;;;;;;47.85;15.95;;;-3.50;99.90;;;;;;5060103;28;20017;-68
2024/01/10 08:58:19;;;;;;;40.20;13.40;;;-3.40;99.90;;;;;;5059651;28;20025;-67
2024/01/10 09:00:44;;;;;;;48.25;15.52;;;-3.30;99.90;;;;;;5059577;28;20096;-68
2024/01/10 09:03:10;;;;;;;42.13;15.07;;;-3.30;99.90;;;;;;5058757;28;20124;-67
2024/01/10 09:05:36;;;;;;;37.78;13.73;;;-3.20;99.90;;;;;;5059532;28;20068;-68
2024/01/10 09:08:02;;;;;;;44.55;14.45;;;-3.30;99.90;;;;;;5059412;28;20028;-68
2024/01/10 09:10:28;;;;;;;40.55;13.13;;;-3.20;99.90;;;;;;5059373;28;20021;-68
2024/01/10 09:12:54;;;;;;;45.78;14.32;;;-3.20;99.90;;;;;;5058555;28;20036;-68
2024/01/10 09:15:19;;;;;;;40.38;15.00;;;-3.30;99.90;;;;;;5058451;28;20021;-67
2024/01/10 09:17:45;;;;;;;42.03;15.15;;;-3.30;99.90;;;;;;5058365;28;20071;-67
2024/01/10 09:20:12;;;;;;;39.78;13.38;;;-3.20;99.90;;;;;;5058575;28;20061;-68
2024/01/10 09:22:39;;;;;;;42.90;14.85;;;-3.10;99.90;;;;;;5059128;28;20048;-68
2024/01/10 09:25:05;;;;;;;37.92;14.80;;;-3.20;99.90;;;;;;5059429;28;20025;-68
2024/01/10 09:27:34;;;;;;;43.90;14.57;;;-3.10;99.90;;;;;;5059120;28;20021;-69
2024/01/10 09:30:08;;;;;;;45.17;14.20;;;-3.10;99.90;;;;;;5058256;28;20036;-67
2024/01/10 09:32:33;;;;;;;45.63;15.50;;;-3.10;99.90;;;;;;5059017;28;20021;-67
2024/01/10 09:34:59;;;;;;;51.72;15.63;;;-3.00;99.90;;;;;;5058891;28;20052;-68
2024/01/10 09:37:25;;;;;;;37.92;14.93;;;-3.30;99.90;;;;;;5058884;28;20016;-68
2024/01/10 09:39:52;;;;;;;41.58;14.43;;;-3.20;99.90;;;;;;5057944;28;20013;-68
2024/01/10 09:42:18;;;;;;;44.45;14.82;;;-3.10;99.90;;;;;;5058793;28;20036;-68
2024/01/10 09:44:45;;;;;;;41.03;14.60;;;-3.10;99.90;;;;;;5059294;28;20021;-68
2024/01/10 09:47:13;;;;;;;47.15;15.27;;;-3.10;99.90;;;;;;5058474;28;20163;-68
2024/01/10 09:49:38;;;;;;;47.45;14.52;;;-3.00;99.90;;;;;;5057653;28;20025;-68
2024/01/10 09:52:10;;;;;;;43.00;14.38;;;-2.80;99.90;;;;;;5058024;28;20021;-69
2024/01/10 09:54:39;;;;;;;40.00;13.87;;;-2.70;99.90;;;;;;5057777;28;20116;-68
2024/01/10 09:57:05;;;;;;;47.45;15.82;;;-2.70;99.90;;;;;;5058477;28;20256;-68
2024/01/10 09:59:31;;;;;;;51.97;15.27;;;-2.80;99.90;;;;;;5058668;28;20021;-68
2024/01/10 10:01:58;;;;;;;44.67;15.60;;;-2.70;99.90;;;;;;5058366;28;20023;-68
2024/01/10 10:04:27;;;;;;;46.95;15.70;;;-2.50;99.90;;;;;;5057428;28;20179;-68
2024/01/10 10:07:02;;;;;;;41.45;13.90;;;-2.60;99.90;;;;;;5058752;28;20021;-67
2024/01/10 10:09:29;;;;;;;44.75;14.55;;;-2.60;99.90;;;;;;5058233;28;20025;-68
2024/01/10 10:11:55;;;;;;;51.60;16.85;;;-2.40;99.90;;;;;;5057432;28;20033;-68
2024/01/10 10:14:22;;;;;;;42.58;14.52;;;-2.30;99.90;;;;;;5058547;28;20021;-68
2024/01/10 10:16:47;;;;;;;46.80;15.05;;;-2.30;99.90;;;;;;5058302;28;20063;-67
2024/01/10 10:19:23;;;;;;;44.90;14.90;;;-2.10;99.90;;;;;;5057095;28;20021;-68
2024/01/10 10:21:48;;;;;;;42.70;14.57;;;-2.00;99.90;;;;;;5058416;28;20017;-68
2024/01/10 10:24:14;;;;;;;45.13;14.15;;;-1.80;99.90;;;;;;5058136;28;20082;-68
2024/01/10 10:26:41;;;;;;;50.38;14.95;;;-1.70;99.90;;;;;;5057105;28;20020;-68
2024/01/10 10:29:06;;;;;;;34.13;14.20;;;-1.50;99.90;;;;;;5058043;28;20021;-68
2024/01/10 10:31:32;;;;;;;43.70;15.57;;;-1.40;99.90;;;;;;5058013;28;20031;-68
2024/01/10 10:33:59;;;;;;;52.22;16.83;;;-1.40;99.90;;;;;;5057839;28;20123;-67
2024/01/10 10:36:25;;;;;;;47.30;15.88;;;-1.40;99.90;;;;;;5056808;28;20025;-68
2024/01/10 10:38:50;;;;;;;47.10;14.68;;;-1.30;99.90;;;;;;5058317;28;20044;-67
2024/01/10 10:41:18;;;;;;;43.33;14.98;;;-1.20;99.90;;;;;;5057977;28;20044;-68
2024/01/10 10:43:43;;;;;;;43.45;14.38;;;-1.00;99.90;;;;;;5057725;28;20021;-68
2024/01/10 10:46:14;;;;;;;45.47;14.95;;;-0.90;99.90;;;;;;5057781;28;20023;-68
2024/01/10 10:48:40;;;;;;;38.70;13.80;;;-0.90;99.90;;;;;;5057525;28;20052;-68
2024/01/10 10:51:09;;;;;;;43.50;15.40;;;-0.90;99.90;;;;;;5057475;28;20021;-68
2024/01/10 10:53:36;;;;;;;39.17;13.60;;;-0.80;99.90;;;;;;5057500;28;20023;-68
2024/01/10 10:56:04;;;;;;;38.90;14.23;;;-0.70;99.90;;;;;;5057683;28;20078;-68
2024/01/10 10:58:34;;;;;;;45.60;15.52;;;-0.70;99.90;;;;;;5057447;28;20022;-68
2024/01/10 11:00:59;;;;;;;38.72;14.48;;;-0.70;99.90;;;;;;5056797;28;20024;-68
2024/01/10 11:03:26;;;;;;;44.40;15.27;;;-0.50;99.90;;;;;;5056419;28;20025;-68
2024/01/10 11:05:53;;;;;;;43.00;14.75;;;-0.40;99.90;;;;;;5056778;28;20029;-68
2024/01/10 11:08:21;;;;;;;41.25;13.85;;;-0.30;99.90;;;;;;5056579;28;20035;-68
2024/01/10 11:10:48;;;;;;;38.65;13.90;;;-0.20;99.90;;;;;;5056279;28;20079;-67
2024/01/10 11:13:27;;;;;;;41.20;15.65;;;-0.10;99.90;;;;;;5057165;28;20035;-68
2024/01/10 11:15:55;;;;;;;41.50;14.70;;;0.00;99.90;;;;;;5056107;28;20021;-68
2024/01/10 11:19:02;;;;;;;42.75;15.15;;;-0.10;99.90;;;;;;5056047;28;20025;-68
2024/01/10 11:22:04;;;;;;;49.55;17.42;;;0.00;99.90;;;;;;5023930;28;20039;-68
2024/01/10 11:24:29;;;;;;;45.10;15.63;;;0.20;99.90;;;;;;5057099;28;20048;-68
2024/01/10 11:27:12;;;;;;;37.20;14.55;;;0.30;99.90;;;;;;5057033;28;20120;-68
2024/01/10 11:29:39;;;;;;;48.63;15.63;;;0.40;99.90;;;;;;5057184;28;20025;-68
2024/01/10 11:32:15;;;;;;;41.60;14.88;;;0.40;99.90;;;;;;5056942;28;20036;-67
2024/01/10 11:35:00;;;;;;;38.47;13.40;;;0.50;99.90;;;;;;5056790;28;20036;-68
2024/01/10 11:37:40;;;;;;;42.55;16.02;;;0.40;99.90;;;;;;5055928;28;20029;-68
2024/01/10 11:40:09;;;;;;;46.72;15.75;;;0.40;99.90;;;;;;5056566;28;20032;-68
2024/01/10 11:42:45;;;;;;;40.72;13.77;;;0.40;99.90;;;;;;5055979;28;20029;-68
2024/01/10 11:45:31;;;;;;;46.83;15.68;;;0.20;99.90;;;;;;5056805;28;20048;-68
2024/01/10 11:48:00;;;;;;;46.50;16.05;;;0.10;99.90;;;;;;5055585;28;20025;-68
2024/01/10 11:50:27;;;;;;;36.47;15.68;;;0.20;99.90;;;;;;5057037;28;20074;-68
2024/01/10 11:52:53;;;;;;;37.03;14.40;;;0.30;99.90;;;;;;5056794;28;20017;-68
2024/01/10 11:55:48;;;;;;;47.08;14.95;;;0.40;99.90;;;;;;5055806;28;20106;-68
2024/01/10 11:58:14;;;;;;;44.67;15.63;;;0.40;99.90;;;;;;5056471;28;20071;-68
2024/01/10 12:00:40;;;;;;;44.28;13.88;;;0.50;99.90;;;;;;5055823;28;20025;-67
2024/01/10 12:03:07;;;;;;;46.08;15.45;;;0.50;99.90;;;;;;5056432;28;20069;-68
2024/01/10 12:05:34;;;;;;;41.33;15.27;;;0.60;99.90;;;;;;5056536;28;20032;-68
2024/01/10 12:08:00;;;;;;;43.67;15.35;;;0.80;99.90;;;;;;5056489;28;20029;-68
2024/01/10 12:10:26;;;;;;;44.65;13.73;;;0.80;99.90;;;;;;5056553;28;20116;-68
2024/01/10 12:12:54;;;;;;;43.45;15.30;;;0.90;99.90;;;;;;5060622;28;20029;-68
2024/01/10 12:15:20;;;;;;;42.90;15.73;;;1.00;99.90;;;;;;5060478;28;20021;-68
2024/01/10 12:17:46;;;;;;;40.55;14.05;;;1.20;99.90;;;;;;5060775;28;20032;-68
2024/01/10 12:20:12;;;;;;;39.78;14.20;;;1.20;99.90;;;;;;5060385;28;20024;-68
2024/01/10 12:22:38;;;;;;;42.80;14.82;;;1.30;99.90;;;;;;5060365;28;20013;-68
2024/01/10 12:25:07;;;;;;;36.80;13.55;;;1.30;99.90;;;;;;5059322;28;20021;-68
2024/01/10 12:27:32;;;;;;;42.38;14.63;;;1.10;99.90;;;;;;5060231;28;20108;-67